Terminal Aerodrome Forecast
Issued by NWS Tulsa, OK

Home | Current Version | Previous Version | Text Only | Print | Product List | Glossary On
Versions: 1 2 3 4 5 6 7 8 9 10 11 12 13 14 15 16 17
000
FTUS44 KTSA 262340
TAFTUL
TAF
KTUL 262340Z 2700/2724 11010KT P6SM VCTS BKN050CB BKN070
      TEMPO 2700/2702 VRB12KT 3SM TSRA BKN035CB
     FM270300 VRB06KT P6SM VCTS BKN035CB BKN100
     FM270900 32008KT P6SM VCSH BKN015
     FM271200 34009KT P6SM BKN015
     FM271900 35010KT P6SM BKN025 BKN035=

USA.gov is the U.S. government's official web portal to all federal, state and local government web resources and services.